createdAt,value
2022-12-10T08:20:41.517Z,4.15
2022-12-10T08:23:12.265Z,4.13
2022-12-10T08:25:42.764Z,4.12
2022-12-10T08:28:13.008Z,4.06
2022-12-10T08:30:43.007Z,4.00
2022-12-10T08:33:13.504Z,3.93
2022-12-10T08:35:44.390Z,3.83
2022-12-10T08:38:14.712Z,3.73
2022-12-10T08:40:45.742Z,3.65
2022-12-10T08:43:16.223Z,3.55
2022-12-10T08:45:46.580Z,3.46
2022-12-10T08:48:17.083Z,3.38
2022-12-10T08:50:48.072Z,3.28
2022-12-10T08:53:18.618Z,3.17
2022-12-10T08:55:51.970Z,3.09
2022-12-10T08:58:23.614Z,3.01
2022-12-10T09:00:54.188Z,2.93
2022-12-10T09:03:25.160Z,2.90
2022-12-10T09:05:55.875Z,2.92
2022-12-10T09:08:26.259Z,2.90
2022-12-10T09:10:58.062Z,2.82
2022-12-10T09:13:28.654Z,2.75
2022-12-10T09:15:58.978Z,2.68
2022-12-10T09:18:29.416Z,2.61
2022-12-10T09:21:00.065Z,2.66
2022-12-10T09:23:30.404Z,2.75
2022-12-10T09:26:00.618Z,2.80
2022-12-10T09:28:30.804Z,2.83
2022-12-10T09:31:01.585Z,2.82
2022-12-10T09:33:31.820Z,2.81
2022-12-10T09:36:02.165Z,2.78
2022-12-10T09:38:32.744Z,2.74
2022-12-10T09:41:26.845Z,2.71
2022-12-10T09:44:11.728Z,2.67
2022-12-10T09:47:05.368Z,2.63
2022-12-10T09:50:05.622Z,2.57
2022-12-10T09:52:45.074Z,2.52
2022-12-10T09:55:18.313Z,2.47
2022-12-10T09:57:54.981Z,2.43
2022-12-10T10:00:47.524Z,2.39
2022-12-10T10:03:19.235Z,2.33
2022-12-10T10:05:54.886Z,2.29
2022-12-10T10:08:41.245Z,2.26
2022-12-10T10:11:20.355Z,2.24
2022-12-10T10:13:58.126Z,2.20
2022-12-10T10:16:34.978Z,2.18
2022-12-10T10:19:17.367Z,2.17
2022-12-10T10:21:52.940Z,2.19
2022-12-10T10:24:37.734Z,2.20
2022-12-10T10:27:32.144Z,2.23
2022-12-10T10:30:06.790Z,2.27
2022-12-10T10:32:40.461Z,2.31
2022-12-10T10:35:24.412Z,2.34
2022-12-10T10:38:00.763Z,2.35
2022-12-10T10:40:47.200Z,2.35
2022-12-10T10:43:51.351Z,2.36
2022-12-10T10:46:28.448Z,2.34
2022-12-10T10:49:19.263Z,2.32
2022-12-10T10:51:50.091Z,2.31
2022-12-10T10:54:48.688Z,2.29
2022-12-10T10:57:28.453Z,2.26
2022-12-10T11:00:09.481Z,2.25
2022-12-10T11:02:44.771Z,2.23
2022-12-10T11:05:36.148Z,2.21
2022-12-10T11:08:15.247Z,2.17
2022-12-10T11:11:03.212Z,2.15
2022-12-10T11:13:37.760Z,2.15
2022-12-10T11:16:27.814Z,2.15
2022-12-10T11:19:03.655Z,2.15
2022-12-10T11:21:36.673Z,2.16
2022-12-10T11:24:14.531Z,2.17
2022-12-10T11:27:03.156Z,2.18
2022-12-10T11:29:42.377Z,2.18
2022-12-10T11:32:38.422Z,2.17
2022-12-10T11:35:16.695Z,2.16
2022-12-10T11:38:11.203Z,2.13
2022-12-10T11:41:01.293Z,2.09
2022-12-10T11:43:53.947Z,2.09
2022-12-10T11:46:33.554Z,2.05
2022-12-10T11:49:25.998Z,1.99
2022-12-10T11:52:05.667Z,1.97
2022-12-10T11:55:02.656Z,1.96
2022-12-10T11:57:48.021Z,1.98
2022-12-10T12:00:34.287Z,2.01
2022-12-10T12:03:50.756Z,2.03
2022-12-10T12:06:40.145Z,2.07
2022-12-10T12:09:10.394Z,2.07
2022-12-10T12:11:59.882Z,2.07
2022-12-10T12:14:48.251Z,2.08
2022-12-10T12:17:35.372Z,2.07
2022-12-10T12:20:18.892Z,2.10
2022-12-10T12:23:05.297Z,2.13
2022-12-10T12:25:41.558Z,2.12
2022-12-10T12:28:25.779Z,2.10
2022-12-10T12:31:08.562Z,2.08
2022-12-10T12:34:17.627Z,2.06
2022-12-10T12:36:48.629Z,2.05
2022-12-10T12:39:25.626Z,2.07
2022-12-10T12:42:10.735Z,2.10
2022-12-10T12:44:59.100Z,2.13
2022-12-10T12:48:01.384Z,2.14
2022-12-10T12:50:40.665Z,2.13
2022-12-10T12:53:26.212Z,2.14
2022-12-10T12:56:12.604Z,2.14
2022-12-10T12:58:51.863Z,2.11
2022-12-10T13:01:31.204Z,2.08
2022-12-10T13:04:03.981Z,2.05
2022-12-10T13:06:45.822Z,2.04
2022-12-10T13:09:16.502Z,2.02
2022-12-10T13:12:08.679Z,2.01
2022-12-10T13:15:03.291Z,1.99
2022-12-10T13:17:41.089Z,1.95
2022-12-10T13:20:29.880Z,1.93
2022-12-10T13:23:27.576Z,1.93
2022-12-10T13:26:00.646Z,1.96
2022-12-10T13:28:40.845Z,1.98
2022-12-10T13:31:17.472Z,2.01
2022-12-10T13:34:07.216Z,2.06
2022-12-10T13:36:44.012Z,2.10
2022-12-10T13:39:34.487Z,2.13
2022-12-10T13:42:25.076Z,2.15
2022-12-10T13:45:26.826Z,2.15
2022-12-10T13:48:25.665Z,2.14
2022-12-10T13:51:13.295Z,2.13
2022-12-10T13:54:07.668Z,2.11
2022-12-10T13:57:12.056Z,2.08
2022-12-10T14:00:07.879Z,2.07
2022-12-10T14:02:56.847Z,2.05
2022-12-10T14:05:41.457Z,2.02
2022-12-10T14:08:20.209Z,1.97
2022-12-10T14:10:51.104Z,1.93
2022-12-10T14:13:24.965Z,1.90
2022-12-10T14:15:58.497Z,1.87
2022-12-10T14:18:31.744Z,1.83
2022-12-10T14:21:08.277Z,1.81
2022-12-10T14:23:45.645Z,1.79
2022-12-10T14:26:17.627Z,1.81
2022-12-10T14:28:53.273Z,1.84
2022-12-10T14:31:30.839Z,1.88
2022-12-10T14:34:08.151Z,1.92
2022-12-10T14:36:47.475Z,1.95
2022-12-10T14:39:21.300Z,1.97
2022-12-10T14:41:55.225Z,1.99
2022-12-10T14:44:25.738Z,1.99
2022-12-10T14:47:11.258Z,1.99
2022-12-10T14:49:45.125Z,1.98
2022-12-10T14:52:18.783Z,1.96
2022-12-10T14:54:50.780Z,1.95
2022-12-10T14:57:33.050Z,1.92
2022-12-10T15:00:10.672Z,1.87
2022-12-10T15:02:45.785Z,1.83
2022-12-10T15:05:24.874Z,1.78
2022-12-10T15:08:01.805Z,1.76
2022-12-10T15:10:44.345Z,1.71
2022-12-10T15:13:43.717Z,1.68
2022-12-10T15:16:30.718Z,1.62
2022-12-10T15:19:32.991Z,1.58
2022-12-10T15:22:19.362Z,1.56
2022-12-10T15:24:57.054Z,1.54
2022-12-10T15:27:30.140Z,1.51
2022-12-10T15:30:02.042Z,1.52
2022-12-10T15:32:34.172Z,1.55
2022-12-10T15:35:16.739Z,1.63
2022-12-10T15:37:58.301Z,1.70
2022-12-10T15:40:34.599Z,1.75
2022-12-10T15:43:29.462Z,1.77
2022-12-10T15:46:03.880Z,1.78
2022-12-10T15:48:40.266Z,1.78
2022-12-10T15:51:13.633Z,1.77
2022-12-10T15:53:45.297Z,1.75
2022-12-10T15:56:23.963Z,1.72
2022-12-10T15:58:56.669Z,1.70
2022-12-10T16:01:28.247Z,1.68
2022-12-10T16:03:59.860Z,1.62
2022-12-10T16:06:33.108Z,1.59
2022-12-10T16:09:04.012Z,1.57
2022-12-10T16:11:36.380Z,1.53
2022-12-10T16:14:10.017Z,1.51
2022-12-10T16:16:44.277Z,1.49
2022-12-10T16:19:18.901Z,1.47
2022-12-10T16:21:51.212Z,1.41
2022-12-10T16:24:23.672Z,1.38
2022-12-10T16:27:00.032Z,1.36
2022-12-10T16:29:31.915Z,1.38
2022-12-10T16:32:05.770Z,1.41
2022-12-10T16:34:38.463Z,1.43
2022-12-10T16:37:10.927Z,1.45
2022-12-10T16:39:50.713Z,1.49
2022-12-10T16:42:25.083Z,1.52
2022-12-10T16:45:02.552Z,1.56
2022-12-10T16:47:41.184Z,1.55
2022-12-10T16:50:15.955Z,1.52
2022-12-10T16:52:50.264Z,1.50
2022-12-10T16:55:25.836Z,1.44
2022-12-10T16:57:57.378Z,1.40
2022-12-10T17:00:29.602Z,1.35
2022-12-10T17:03:08.112Z,1.28
2022-12-10T17:05:45.025Z,1.25
2022-12-10T17:08:16.523Z,1.24
2022-12-10T17:11:05.527Z,1.23
2022-12-10T17:13:38.405Z,1.18
2022-12-10T17:16:09.434Z,1.17
2022-12-10T17:18:40.526Z,1.16
2022-12-10T17:21:11.797Z,1.19
2022-12-10T17:23:42.592Z,1.22
2022-12-10T17:26:29.752Z,1.27
2022-12-10T17:29:06.458Z,1.32
2022-12-10T17:31:41.180Z,1.34
2022-12-10T17:34:15.021Z,1.36
2022-12-10T17:36:46.712Z,1.38
2022-12-10T17:39:24.249Z,1.37
2022-12-10T17:41:55.327Z,1.33
2022-12-10T17:44:28.012Z,1.29
2022-12-10T17:47:00.306Z,1.27
2022-12-10T17:49:32.807Z,1.22
2022-12-10T17:52:04.215Z,1.18
2022-12-10T17:54:36.941Z,1.17
2022-12-10T17:57:24.248Z,1.13
2022-12-10T17:59:55.390Z,1.10
2022-12-10T18:02:28.285Z,1.04
2022-12-10T18:05:00.786Z,1.01
2022-12-10T18:07:34.275Z,0.98
2022-12-10T18:10:09.582Z,0.96
2022-12-10T18:12:43.404Z,0.93
2022-12-10T18:15:15.620Z,0.95
2022-12-10T18:17:47.784Z,0.97
2022-12-10T18:20:29.464Z,1.01
2022-12-10T18:23:02.422Z,1.06
2022-12-10T18:25:33.829Z,1.10
2022-12-10T18:28:23.741Z,1.13
2022-12-10T18:31:00.758Z,1.16
2022-12-10T18:33:49.600Z,1.17
2022-12-10T18:36:27.303Z,1.17
2022-12-10T18:39:00.025Z,1.18
2022-12-10T18:41:30.889Z,1.19
2022-12-10T18:44:05.333Z,1.18
2022-12-10T18:46:40.483Z,1.16
2022-12-10T18:49:15.476Z,1.13
2022-12-10T18:51:46.317Z,1.11
2022-12-10T18:54:17.376Z,1.08
2022-12-10T18:57:31.330Z,1.05
2022-12-10T18:59:45.372Z,1.02
2022-12-10T19:02:21.024Z,1.00
2022-12-10T19:04:53.214Z,0.97
2022-12-10T19:07:25.765Z,0.96
2022-12-10T19:09:57.995Z,0.95
2022-12-10T19:12:30.585Z,0.98
2022-12-10T19:15:06.237Z,1.00
2022-12-10T19:17:47.324Z,1.01
2022-12-10T19:20:27.483Z,1.04
2022-12-10T19:23:01.442Z,1.06
2022-12-10T19:25:38.175Z,1.08
2022-12-10T19:28:19.181Z,1.09
2022-12-10T19:30:52.816Z,1.09
2022-12-10T19:33:24.847Z,1.07
2022-12-10T19:35:58.651Z,1.04
2022-12-10T19:38:31.180Z,0.98
2022-12-10T19:41:03.882Z,0.91
2022-12-10T19:43:39.953Z,0.85
2022-12-10T19:46:20.042Z,0.81
2022-12-10T19:48:56.434Z,0.76
2022-12-10T19:51:32.667Z,0.74
2022-12-10T19:54:10.505Z,0.85
2022-12-10T19:56:46.172Z,0.98
2022-12-10T19:59:21.307Z,1.04
2022-12-10T20:01:53.439Z,1.06
2022-12-10T20:04:27.743Z,1.05
2022-12-10T20:07:00.197Z,1.05
2022-12-10T20:09:38.103Z,1.07
2022-12-10T20:12:12.111Z,1.09
2022-12-10T20:14:48.938Z,1.09
2022-12-10T20:17:25.762Z,1.06
2022-12-10T20:19:58.245Z,1.03
2022-12-10T20:22:32.177Z,0.99
2022-12-10T20:25:08.641Z,0.95
2022-12-10T20:27:43.513Z,0.92
2022-12-10T20:30:23.962Z,0.89
2022-12-10T20:32:57.613Z,0.84
2022-12-10T20:35:42.948Z,0.77
2022-12-10T20:38:16.856Z,0.69
2022-12-10T20:40:49.766Z,0.61
2022-12-10T20:43:26.162Z,0.53
2022-12-10T20:46:05.280Z,0.49
2022-12-10T20:48:42.050Z,0.45
2022-12-10T20:51:17.217Z,0.44
2022-12-10T20:53:52.305Z,0.45
2022-12-10T20:56:28.615Z,0.48
2022-12-10T20:59:00.247Z,0.51
2022-12-10T21:01:34.113Z,0.55
2022-12-10T21:04:07.764Z,0.59
2022-12-10T21:06:39.141Z,0.63
2022-12-10T21:09:11.899Z,0.65
2022-12-10T21:11:46.236Z,0.65
2022-12-10T21:14:52.290Z,0.65
2022-12-10T21:17:10.089Z,0.61
2022-12-10T21:19:44.118Z,0.56
2022-12-10T21:22:17.381Z,0.52
2022-12-10T21:24:52.361Z,0.47
2022-12-10T21:27:26.274Z,0.43
2022-12-10T21:29:57.773Z,0.38
2022-12-10T21:32:34.505Z,0.32
2022-12-10T21:35:07.369Z,0.28
2022-12-10T21:37:40.097Z,0.24
2022-12-10T21:40:13.576Z,0.23
2022-12-10T21:43:03.266Z,0.22
2022-12-10T21:45:35.080Z,0.22
2022-12-10T21:48:07.795Z,0.23
2022-12-10T21:50:40.492Z,0.25
2022-12-10T21:53:14.727Z,0.27
2022-12-10T21:55:49.584Z,0.31
2022-12-10T21:58:21.527Z,0.34
2022-12-10T22:00:59.507Z,0.35
2022-12-10T22:03:30.530Z,0.34
2022-12-10T22:06:05.211Z,0.30
2022-12-10T22:08:36.397Z,0.29
2022-12-10T22:11:10.174Z,0.27
2022-12-10T22:13:40.970Z,0.26
2022-12-10T22:16:12.807Z,0.26
2022-12-10T22:18:43.487Z,0.24
2022-12-10T22:21:14.638Z,0.22
2022-12-10T22:23:45.339Z,0.19
2022-12-10T22:26:15.605Z,0.16
2022-12-10T22:28:46.305Z,0.17
2022-12-10T22:31:16.779Z,0.17
2022-12-10T22:33:47.512Z,0.17
2022-12-10T22:36:18.905Z,0.18
2022-12-10T22:38:51.420Z,0.22
2022-12-10T22:41:21.849Z,0.25
2022-12-10T22:43:52.909Z,0.25
2022-12-10T22:46:23.387Z,0.28
2022-12-10T22:48:54.364Z,0.32
2022-12-10T22:51:24.608Z,0.35
2022-12-10T22:53:56.245Z,0.32
2022-12-10T22:56:26.601Z,0.29
2022-12-10T22:58:58.616Z,0.29
2022-12-10T23:01:30.322Z,0.30
2022-12-10T23:04:00.825Z,0.28
2022-12-10T23:06:31.606Z,0.24
2022-12-10T23:09:02.133Z,0.22
2022-12-10T23:11:32.573Z,0.19
2022-12-10T23:14:02.920Z,0.17
2022-12-10T23:16:33.855Z,0.13
2022-12-10T23:19:04.914Z,0.10
2022-12-10T23:21:37.937Z,0.07
2022-12-10T23:24:08.735Z,0.06
2022-12-10T23:26:43.980Z,0.04
2022-12-10T23:29:17.369Z,0.00
2022-12-10T23:31:48.314Z,-0.02
2022-12-10T23:34:21.734Z,0.01
2022-12-10T23:36:59.006Z,0.03
2022-12-10T23:39:29.532Z,0.03
2022-12-10T23:41:59.827Z,0.05
2022-12-10T23:44:30.415Z,0.08
2022-12-10T23:47:00.805Z,0.10
2022-12-10T23:49:32.470Z,0.11
2022-12-10T23:52:09.316Z,0.10
2022-12-10T23:54:40.344Z,0.09
2022-12-10T23:57:10.916Z,0.10
2022-12-10T23:59:41.679Z,0.09
